地図

経路データ

SID SEASON NUMBER BASIN SUBBASIN NAME ISO_TIME NATURE LAT LON WMO_WIND WMO_PRES WMO_AGENCY TRACK_TYPE DIST2LAND LANDFALL IFLAG USA_AGENCY USA_ATCF_ID USA_LAT USA_LON USA_RECORD USA_STATUS USA_WIND USA_PRES USA_SSHS USA_R34_NE USA_R34_SE USA_R34_SW USA_R34_NW USA_R50_NE USA_R50_SE USA_R50_SW USA_R50_NW USA_R64_NE USA_R64_SE USA_R64_SW USA_R64_NW USA_POCI USA_ROCI USA_RMW USA_EYE TOKYO_LAT TOKYO_LON TOKYO_GRADE TOKYO_WIND TOKYO_PRES TOKYO_R50_DIR TOKYO_R50_LONG TOKYO_R50_SHORT TOKYO_R30_DIR TOKYO_R30_LONG TOKYO_R30_SHORT TOKYO_LAND CMA_LAT CMA_LON CMA_CAT CMA_WIND CMA_PRES HKO_LAT HKO_LON HKO_CAT HKO_WIND HKO_PRES NEWDELHI_LAT NEWDELHI_LON NEWDELHI_GRADE NEWDELHI_WIND NEWDELHI_PRES NEWDELHI_CI NEWDELHI_DP NEWDELHI_POCI REUNION_LAT REUNION_LON REUNION_TYPE REUNION_WIND REUNION_PRES REUNION_TNUM REUNION_CI REUNION_RMW REUNION_R34_NE REUNION_R34_SE REUNION_R34_SW REUNION_R34_NW REUNION_R50_NE REUNION_R50_SE REUNION_R50_SW REUNION_R50_NW REUNION_R64_NE REUNION_R64_SE REUNION_R64_SW REUNION_R64_NW BOM_LAT BOM_LON BOM_TYPE BOM_WIND BOM_PRES BOM_TNUM BOM_CI BOM_RMW BOM_R34_NE BOM_R34_SE BOM_R34_SW BOM_R34_NW BOM_R50_NE BOM_R50_SE BOM_R50_SW BOM_R50_NW BOM_R64_NE BOM_R64_SE BOM_R64_SW BOM_R64_NW BOM_ROCI BOM_POCI BOM_EYE BOM_POS_METHOD BOM_PRES_METHOD NADI_LAT NADI_LON NADI_CAT NADI_WIND NADI_PRES WELLINGTON_LAT WELLINGTON_LON WELLINGTON_WIND WELLINGTON_PRES DS824_LAT DS824_LON DS824_STAGE DS824_WIND DS824_PRES TD9636_LAT TD9636_LON TD9636_STAGE TD9636_WIND TD9636_PRES TD9635_LAT TD9635_LON TD9635_WIND TD9635_PRES TD9635_ROCI NEUMANN_LAT NEUMANN_LON NEUMANN_CLASS NEUMANN_WIND NEUMANN_PRES MLC_LAT MLC_LON MLC_CLASS MLC_WIND MLC_PRES USA_GUST BOM_GUST BOM_GUST_PER REUNION_GUST REUNION_GUST_PER USA_SEAHGT USA_SEARAD_NE USA_SEARAD_SE USA_SEARAD_SW USA_SEARAD_NW STORM_SPEED STORM_DIR
1861355S11068 1862 38 SI MM NOT_NAMED 1861-12-20 18:00:00 NR -11.0000 68.3000 main 1524 1508 __________O___ -1 -11.0000 68.3000 7 4 227
1861355S11068 1862 38 SI MM NOT_NAMED 1861-12-20 21:00:00 NR -11.1266 68.1610 main 1508 1485 __________P___ -1 -11.1266 68.1610 7 4 228
1861355S11068 1862 38 SI MM NOT_NAMED 1861-12-21 00:00:00 NR -11.2525 68.0176 main 1477 1462 __________P___ -1 -11.2525 68.0176 7 4 229
1861355S11068 1862 38 SI MM NOT_NAMED 1861-12-21 03:00:00 NR -11.3772 67.8653 main 1462 1462 __________P___ -1 -11.3772 67.8653 7 2 235
1861355S11068 1862 38 SI MM NOT_NAMED 1861-12-21 06:00:00 NR -11.3600 67.8600 reunion main 1462 1454 _____O____O___ -1 -10.8000 68.5000 99 9.90000 -11.5000 67.7000 7 1 274
1861355S11068 1862 38 SI MM NOT_NAMED 1861-12-21 09:00:00 NR -11.3735 67.8122 main 1454 1446 _____P____P___ -1 -10.8785 68.3966 99 -11.6210 67.5200 7 1 247
1861355S11068 1862 38 SI MM NOT_NAMED 1861-12-21 12:00:00 NR -11.4063 67.7452 main 1446 1446 _____P____P___ -1 -10.9578 68.2922 99 -11.7426 67.3350 7 2 240
1861355S11068 1862 38 SI MM NOT_NAMED 1861-12-21 15:00:00 NR -11.4534 67.6718 main 1438 1414 _____P____P___ -1 -11.0389 68.1862 99 -11.8679 67.1575 7 3 232
1861355S11068 1862 38 SI MM NOT_NAMED 1861-12-21 18:00:00 NR -11.5613 67.5388 main 1414 1399 _____P____O___ -1 -11.1225 68.0775 99 -12.0000 67.0000 7 3 227
1861355S11068 1862 38 SI MM NOT_NAMED 1861-12-21 21:00:00 NR -11.6782 67.4219 main 1399 1383 _____P____P___ -1 -11.2096 67.9654 99 -12.1468 66.8784 7 3 223
1861355S11068 1862 38 SI MM NOT_NAMED 1861-12-22 00:00:00 NR -11.8004 67.3132 main 1383 1368 _____P____P___ -1 -11.3009 67.8490 99 -12.2999 66.7774 7 3 220
1861355S11068 1862 38 SI MM NOT_NAMED 1861-12-22 03:00:00 NR -11.9253 67.2076 main 1368 1352 _____P____P___ -1 -11.3974 67.7275 99 -12.4531 66.6878 7 3 220
1861355S11068 1862 38 SI MM NOT_NAMED 1861-12-22 06:00:00 NR -12.0500 67.1000 reunion main 1352 1329 _____O____O___ -1 -11.5000 67.6000 99 9.90000 -12.6000 66.6000 7 3 222
1861355S11068 1862 38 SI MM NOT_NAMED 1861-12-22 09:00:00 NR -12.1686 66.9830 main 1329 1313 _____P____P___ -1 -11.6092 67.4661 99 -12.7281 66.4999 7 3 224
1861355S11068 1862 38 SI MM NOT_NAMED 1861-12-22 12:00:00 NR -12.2872 66.8636 main 1313 1290 _____P____P___ -1 -11.7244 67.3272 99 -12.8500 66.3999 7 3 224
1861355S11068 1862 38 SI MM NOT_NAMED 1861-12-22 15:00:00 NR -12.4084 66.7427 main 1290 1274 _____P____P___ -1 -11.8450 67.1854 99 -12.9719 66.2999 7 3 224
1861355S11068 1862 38 SI MM NOT_NAMED 1861-12-22 18:00:00 NR -12.5351 66.6213 main 1274 1251 _____P____O___ -1 -11.9701 67.0426 99 -13.1000 66.2000 7 4 222
1861355S11068 1862 38 SI MM NOT_NAMED 1861-12-22 21:00:00 NR -12.6729 66.4963 main 1251 1235 _____P____P___ -1 -12.0989 66.9007 99 -13.2469 66.0919 7 4 221
1861355S11068 1862 38 SI MM NOT_NAMED 1861-12-23 00:00:00 NR -12.8154 66.3733 main 1235 1212 _____P____P___ -1 -12.2307 66.7616 99 -13.4000 65.9850 7 4 219
1861355S11068 1862 38 SI MM NOT_NAMED 1861-12-23 03:00:00 NR -12.9589 66.2565 main 1212 1197 _____P____P___ -1 -12.3646 66.6274 99 -13.5531 65.8857 7 4 217
1861355S11068 1862 38 SI MM NOT_NAMED 1861-12-23 06:00:00 NR -13.1000 66.1500 reunion main 1197 1181 _____O____O___ -1 -12.5000 66.5000 99 9.90000 -13.7000 65.8000 7 3 215
1861355S11068 1862 38 SI MM NOT_NAMED 1861-12-23 09:00:00 NR -13.2364 66.0540 main 1181 1158 _____P____P___ -1 -12.6366 66.3765 99 -13.8362 65.7315 7 3 213
1861355S11068 1862 38 SI MM NOT_NAMED 1861-12-23 12:00:00 NR -13.3704 65.9678 main 1158 1143 _____P____P___ -1 -12.7759 66.2581 99 -13.9650 65.6774 7 3 211
1861355S11068 1862 38 SI MM NOT_NAMED 1861-12-23 15:00:00 NR -13.5014 65.8902 main 1143 1127 _____P____P___ -1 -12.9165 66.1457 99 -14.0862 65.6347 7 3 209
1861355S11068 1862 38 SI MM NOT_NAMED 1861-12-23 18:00:00 NR -13.6287 65.8200 main 1127 1120 _____P____O___ -1 -13.0574 66.0400 99 -14.2000 65.6000 7 3 207
1861355S11068 1862 38 SI MM NOT_NAMED 1861-12-23 21:00:00 NR -13.7523 65.7548 main 1112 1097 _____P____P___ -1 -13.1974 65.9418 99 -14.3072 65.5678 7 3 207
1861355S11068 1862 38 SI MM NOT_NAMED 1861-12-24 00:00:00 NR -13.8714 65.6972 main 1097 1081 _____P____P___ -1 -13.3353 65.8519 99 -14.4075 65.5425 7 3 204
1861355S11068 1862 38 SI MM NOT_NAMED 1861-12-24 03:00:00 NR -13.9870 65.6460 main 1081 1074 _____P____P___ -1 -13.4699 65.7710 99 -14.5041 65.5209 7 2 202
1861355S11068 1862 38 SI MM NOT_NAMED 1861-12-24 06:00:00 NR -14.1000 65.6000 reunion main 1074 1067 _____O____O___ -1 -13.6000 65.7000 99 9.90000 -14.6000 65.5000 7 2 201
1861355S11068 1862 38 SI MM NOT_NAMED 1861-12-24 09:00:00 NR -14.2088 65.5561 main 1067 1052 _____P____P___ -1 -13.7217 65.6372 99 -14.6959 65.4750 7 2 201
1861355S11068 1862 38 SI MM NOT_NAMED 1861-12-24 12:00:00 NR -14.3159 65.5174 main 1052 1045 _____P____P___ -1 -13.8393 65.5848 99 -14.7925 65.4500 7 2 197
1861355S11068 1862 38 SI MM NOT_NAMED 1861-12-24 15:00:00 NR -14.4231 65.4831 main 1045 1038 _____P____P___ -1 -13.9534 65.5411 99 -14.8928 65.4250 7 2 198
1861355S11068 1862 38 SI MM NOT_NAMED 1861-12-24 18:00:00 NR -14.5324 65.4524 main 1038 1022 _____P____O___ -1 -14.0649 65.5047 99 -15.0000 65.4000 7 2 195
1861355S11068 1862 38 SI MM NOT_NAMED 1861-12-24 21:00:00 NR -14.6360 65.4225 main 1022 1015 _____P____P___ -1 -14.1745 65.4740 99 -15.0975 65.3709 7 2 196
1861355S11068 1862 38 SI MM NOT_NAMED 1861-12-25 00:00:00 NR -14.7440 65.3949 main 1015 1002 _____P____P___ -1 -14.2831 65.4473 99 -15.2050 65.3425 7 2 194
1861355S11068 1862 38 SI MM NOT_NAMED 1861-12-25 03:00:00 NR -14.8631 65.3705 main 1002 995 _____P____P___ -1 -14.3913 65.4232 99 -15.3350 65.3178 7 3 189
1861355S11068 1862 38 SI MM NOT_NAMED 1861-12-25 06:00:00 NR -15.0000 65.3500 reunion main 995 980 _____O____O___ -1 -14.5000 65.4000 99 9.90000 -15.5000 65.3000 7 3 188
1861355S11068 1862 38 SI MM NOT_NAMED 1861-12-25 09:00:00 NR -15.1587 65.3237 main 974 967 _____P____P___ -1 -14.5953 65.3627 99 -15.7222 65.2847 7 3 187
1861355S11068 1862 38 SI MM NOT_NAMED 1861-12-25 12:00:00 NR -15.3330 65.3021 main 967 954 _____P____P___ -1 -14.6885 65.3266 99 -15.9775 65.2776 7 4 185
1861355S11068 1862 38 SI MM NOT_NAMED 1861-12-25 15:00:00 NR -15.5135 65.2873 main 954 942 _____P____P___ -1 -14.7830 65.2929 99 -16.2441 65.2816 7 4 0
1861355S11068 1862 38 SI MM NOT_NAMED 1861-12-25 18:00:00 NR -15.6913 65.2813 main 942 936 _____P____O___ -1 -14.8825 65.2627 99 -16.5000 65.3000 7 3 0
1861355S11068 1862 38 SI MM NOT_NAMED 1861-12-25 21:00:00 NR -15.8544 65.2863 main 930 925 _____P____P___ -1 -14.9904 65.2371 99 -16.7184 65.3356 7 3 175
1861355S11068 1862 38 SI MM NOT_NAMED 1861-12-26 00:00:00 NR -16.0164 65.3011 main 925 913 _____P____P___ -1 -15.1103 65.2173 99 -16.9225 65.3849 7 3 173
1861355S11068 1862 38 SI MM NOT_NAMED 1861-12-26 03:00:00 NR -16.1805 65.3232 main 913 908 _____P____P___ -1 -15.2457 65.2046 99 -17.1153 65.4418 7 3 174
1861355S11068 1862 38 SI MM NOT_NAMED 1861-12-26 06:00:00 NR -16.3500 65.3500 reunion main 917 907 _____O____O___ -1 -15.4000 65.2000 99 9.90000 -17.3000 65.5000 7 4 171
1861355S11068 1862 38 SI MM NOT_NAMED 1861-12-26 09:00:00 NR -16.5425 65.3763 main 907 896 _____P____P___ -1 -15.5946 65.2025 99 -17.4903 65.5500 7 4 171
1861355S11068 1862 38 SI MM NOT_NAMED 1861-12-26 12:00:00 NR -16.7411 65.4065 main 896 886 _____P____P___ -1 -15.8097 65.2130 99 -17.6725 65.6000 7 4 171
1861355S11068 1862 38 SI MM NOT_NAMED 1861-12-26 15:00:00 NR -16.9413 65.4404 main 886 881 _____P____P___ -1 -16.0392 65.2307 99 -17.8434 65.6500 7 4 170
1861355S11068 1862 38 SI MM NOT_NAMED 1861-12-26 18:00:00 NR -17.1388 65.4774 main 886 877 _____P____O___ -1 -16.2775 65.2548 99 -18.0000 65.7000 7 4 170
1861355S11068 1862 38 SI MM NOT_NAMED 1861-12-26 21:00:00 NR -17.3127 65.5093 main 877 868 _____P____P___ -1 -16.5186 65.2846 99 -18.1068 65.7340 7 4 168
1861355S11068 1862 38 SI MM NOT_NAMED 1861-12-27 00:00:00 NR -17.4807 65.5449 main 868 868 _____P____P___ -1 -16.7566 65.3193 99 -18.2049 65.7704 7 4 167
1861355S11068 1862 38 SI MM NOT_NAMED 1861-12-27 03:00:00 NR -17.6556 65.5898 main 870 866 _____P____P___ -1 -16.9857 65.3580 99 -18.3256 65.8216 7 4 165
1861355S11068 1862 38 SI MM NOT_NAMED 1861-12-27 06:00:00 NR -17.8500 65.6500 reunion main 876 865 _____O____O___ -1 -17.2000 65.4000 99 9.90000 -18.5000 65.9000 7 4 164
1861355S11068 1862 38 SI MM NOT_NAMED 1861-12-27 09:00:00 NR -18.0712 65.7234 main 865 865 _____P____P___ -1 -17.3587 65.4258 99 -18.7838 66.0209 7 5 162
1861355S11068 1862 38 SI MM NOT_NAMED 1861-12-27 12:00:00 NR -18.3112 65.8118 main 868 865 _____P____P___ -1 -17.5023 65.4540 99 -19.1201 66.1696 7 5 160
1861355S11068 1862 38 SI MM NOT_NAMED 1861-12-27 15:00:00 NR -18.5543 65.9101 main 870 870 _____P____P___ -1 -17.6373 65.4867 99 -19.4713 66.3335 7 5 158
1861355S11068 1862 38 SI MM NOT_NAMED 1861-12-27 18:00:00 NR -18.7849 66.0132 main 875 872 _____P____O___ -1 -17.7697 65.5264 99 -19.8000 66.5000 7 5 156
1861355S11068 1862 38 SI MM NOT_NAMED 1861-12-27 21:00:00 NR -18.9655 66.1009 main 881 879 _____P____P___ -1 -17.9060 65.5752 99 -20.0251 66.6265 7 4 154
1861355S11068 1862 38 SI MM NOT_NAMED 1861-12-28 00:00:00 NR -19.1397 66.1959 main 889 887 _____P____P___ -1 -18.0522 65.6356 99 -20.2271 66.7563 7 4 151
1861355S11068 1862 38 SI MM NOT_NAMED 1861-12-28 03:00:00 NR -19.3277 66.3088 main 896 894 _____P____P___ -1 -18.2148 65.7097 99 -20.4406 66.9079 7 5 149
1861355S11068 1862 38 SI MM NOT_NAMED 1861-12-28 06:00:00 NR -19.5500 66.4500 reunion main 913 903 _____O____O___ -1 -18.4000 65.8000 99 9.90000 -20.7000 67.1000 7 6 149
1861355S11068 1862 38 SI MM NOT_NAMED 1861-12-28 09:00:00 NR -19.8416 66.6331 main 920 919 _____P____P___ -1 -18.6170 65.8979 99 -21.0662 67.3682 7 7 149
1861355S11068 1862 38 SI MM NOT_NAMED 1861-12-28 12:00:00 NR -20.1658 66.8436 main 938 938 _____P____P___ -1 -18.8536 66.0109 99 -21.4779 67.6764 7 8 148
1861355S11068 1862 38 SI MM NOT_NAMED 1861-12-28 15:00:00 NR -20.5045 67.0676 main 969 969 _____P____P___ -1 -19.1084 66.1388 99 -21.9006 67.9964 7 8 148
1861355S11068 1862 38 SI MM NOT_NAMED 1861-12-28 18:00:00 NR -20.8399 67.2908 main 990 990 _____P____O___ -1 -19.3797 66.2816 99 -22.3000 68.3000 7 8 148
1861355S11068 1862 38 SI MM NOT_NAMED 1861-12-28 21:00:00 NR -21.1581 67.5020 main 1013 1013 _____P____P___ -1 -19.6661 66.4392 99 -22.6501 68.5648 7 5 150
1861355S11068 1862 38 SI MM NOT_NAMED 1861-12-29 00:00:00 NR -21.2479 67.5475 main 1013 1013 _____P____P___ -1 -19.9659 66.6115 99 -22.9573 68.7954 7 1 161
1861355S11068 1862 38 SI MM NOT_NAMED 1861-12-29 03:00:00 NR -21.2638 67.5334 main 1014 1002 _____P____P___ -1 -20.2778 66.7985 99 -23.2358 69.0032 7 1 305
1861355S11068 1862 38 SI MM NOT_NAMED 1861-12-29 06:00:00 NR -21.1800 67.4400 reunion main 1002 980 _____O____O___ -1 -20.6000 67.0000 99 9.90000 -23.5000 69.2000 7 4 318
1861355S11068 1862 38 SI MM NOT_NAMED 1861-12-29 09:00:00 NR -20.9493 67.2248 main 980 980 _____P________ -1 -20.9493 67.2248 99 7 1 169
1861355S11068 1862 38 SI MM NOT_NAMED 1861-12-29 12:00:00 NR -21.3145 67.4683 main 1014 1014 _____P________ -1 -21.3145 67.4683 99 7 9 148
1861355S11068 1862 38 SI MM NOT_NAMED 1861-12-29 15:00:00 NR -21.6877 67.7248 main 1039 1039 _____P________ -1 -21.6877 67.7248 99 7 9 147
1861355S11068 1862 38 SI MM NOT_NAMED 1861-12-29 18:00:00 NR -22.0611 67.9886 main 1075 1075 _____P________ -1 -22.0611 67.9886 99 9 146
1861355S11068 1862 38 SI MM NOT_NAMED 1861-12-29 21:00:00 NR -22.4269 68.2541 main 1111 1111 _____P________ -1 -22.4269 68.2541 99 9 146
1861355S11068 1862 38 SI MM NOT_NAMED 1861-12-30 00:00:00 NR -22.7771 68.5151 main 1140 1140 _____P________ -1 -22.7771 68.5151 99 8 145
1861355S11068 1862 38 SI MM NOT_NAMED 1861-12-30 03:00:00 NR -23.1041 68.7658 main 1178 1178 _____P________ -1 -23.1041 68.7658 99 8 144
1861355S11068 1862 38 SI MM NOT_NAMED 1861-12-30 06:00:00 NR -23.4000 69.0000 reunion main 1205 1205 _____O________ -1 -23.4000 69.0000 99 9.90000 7 143
1861355S11068 1862 38 SI MM NOT_NAMED 1861-12-30 09:00:00 NR -23.6594 69.2129 main 1234 1234 _____P________ -1 -23.6594 69.2129 99 6 143
1861355S11068 1862 38 SI MM NOT_NAMED 1861-12-30 12:00:00 NR -23.8849 69.4057 main 1260 1260 _____P________ -1 -23.8849 69.4057 99 5 141
1861355S11068 1862 38 SI MM NOT_NAMED 1861-12-30 15:00:00 NR -24.0816 69.5813 main 1285 1285 _____P________ -1 -24.0816 69.5813 99 5 140
1861355S11068 1862 38 SI MM NOT_NAMED 1861-12-30 18:00:00 NR -24.2541 69.7424 main 1302 1302 _____P________ -1 -24.2541 69.7424 99 4 139
1861355S11068 1862 38 SI MM NOT_NAMED 1861-12-30 21:00:00 NR -24.4075 69.8918 main 1325 1325 _____P________ -1 -24.4075 69.8918 99 4 138
1861355S11068 1862 38 SI MM NOT_NAMED 1861-12-31 00:00:00 NR -24.5464 70.0326 main 1338 1338 _____P________ -1 -24.5464 70.0326 99 4 137
1861355S11068 1862 38 SI MM NOT_NAMED 1861-12-31 03:00:00 NR -24.6756 70.1677 main 1364 1364 _____P________ -1 -24.6756 70.1677 99 4 136
1861355S11068 1862 38 SI MM NOT_NAMED 1861-12-31 06:00:00 NR -24.8000 70.3000 reunion main 1377 _____O________ -1 -24.8000 70.3000 99 9.90000 3 136

IBTrACS Databaseについて

本データベースは、米国NOAAが公開する1842年以降の世界の熱帯低気圧のベストトラックデータアーカイブInternational Best Track Archive for Climate Stewardship (IBTrACS)を、ウェブで閲覧しやすい形式に変換したものです。

最終更新日:2021-10-21